sensor_id;sensor_type;location;lat;lon;timestamp;pressure;altitude;pressure_sealevel;temperature;humidity
36834;BME280;48003;52.084;5.224;2023-09-30T00:02:30;102517.0;;;15.62;77.66
36834;BME280;48003;52.084;5.224;2023-09-30T00:04:05;102521.0;;;15.63;77.78
36834;BME280;48003;52.084;5.224;2023-09-30T00:05:42;102521.0;;;15.6;77.95
36834;BME280;48003;52.084;5.224;2023-09-30T00:08:53;102522.0;;;15.63;77.91
36834;BME280;48003;52.084;5.224;2023-09-30T00:10:29;102525.0;;;15.66;77.72
36834;BME280;48003;52.084;5.224;2023-09-30T00:12:06;102527.0;;;15.67;77.72
36834;BME280;48003;52.084;5.224;2023-09-30T00:15:18;102519.0;;;15.65;77.91
36834;BME280;48003;52.084;5.224;2023-09-30T00:16:55;102519.0;;;15.74;77.97
36834;BME280;48003;52.084;5.224;2023-09-30T00:18:31;102519.0;;;15.74;77.89
36834;BME280;48003;52.084;5.224;2023-09-30T00:20:08;102522.0;;;15.81;77.77
36834;BME280;48003;52.084;5.224;2023-09-30T00:23:20;102521.0;;;15.87;77.49
36834;BME280;48003;52.084;5.224;2023-09-30T00:24:56;102527.0;;;15.85;77.61
36834;BME280;48003;52.084;5.224;2023-09-30T00:26:33;102529.0;;;15.77;77.97
36834;BME280;48003;52.084;5.224;2023-09-30T00:29:45;102527.0;;;15.84;77.87
36834;BME280;48003;52.084;5.224;2023-09-30T00:31:21;102531.0;;;15.77;78.06
36834;BME280;48003;52.084;5.224;2023-09-30T00:32:56;102531.0;;;15.7;77.97
36834;BME280;48003;52.084;5.224;2023-09-30T00:36:11;102532.0;;;15.72;78.23
36834;BME280;48003;52.084;5.224;2023-09-30T00:37:47;102541.00000000001;;;15.81;77.98
36834;BME280;48003;52.084;5.224;2023-09-30T00:39:22;102542.0;;;15.87;77.77
36834;BME280;48003;52.084;5.224;2023-09-30T00:40:58;102545.0;;;15.89;77.83
36834;BME280;48003;52.084;5.224;2023-09-30T00:44:09;102546.0;;;15.94;77.77
36834;BME280;48003;52.084;5.224;2023-09-30T00:45:46;102543.0;;;15.94;77.81
36834;BME280;48003;52.084;5.224;2023-09-30T00:47:25;102546.0;;;15.94;77.86
36834;BME280;48003;52.084;5.224;2023-09-30T00:50:38;102551.0;;;15.89;78.27
36834;BME280;48003;52.084;5.224;2023-09-30T00:52:13;102552.0;;;15.93;78.2
36834;BME280;48003;52.084;5.224;2023-09-30T00:53:51;102553.0;;;15.91;78.36
36834;BME280;48003;52.084;5.224;2023-09-30T00:57:03;102549.0;;;15.87;78.53
36834;BME280;48003;52.084;5.224;2023-09-30T00:58:40;102544.0;;;15.88;78.49
36834;BME280;48003;52.084;5.224;2023-09-30T01:00:17;102544.0;;;15.84;78.59
36834;BME280;48003;52.084;5.224;2023-09-30T01:01:54;102545.0;;;15.77;78.77
36834;BME280;48003;52.084;5.224;2023-09-30T01:05:08;102547.0;;;15.78;78.67
36834;BME280;48003;52.084;5.224;2023-09-30T01:06:44;102551.0;;;15.85;78.75
36834;BME280;48003;52.084;5.224;2023-09-30T01:08:20;102549.0;;;15.9;78.17
36834;BME280;48003;52.084;5.224;2023-09-30T01:11:34;102558.99999999999;;;15.85;78.55
36834;BME280;48003;52.084;5.224;2023-09-30T01:13:10;102563.00000000001;;;15.81;78.48
36834;BME280;48003;52.084;5.224;2023-09-30T01:14:45;102572.0;;;15.76;78.49
36834;BME280;48003;52.084;5.224;2023-09-30T01:17:57;102570.0;;;15.75;78.36
36834;BME280;48003;52.084;5.224;2023-09-30T01:19:33;102568.0;;;15.73;78.36
36834;BME280;48003;52.084;5.224;2023-09-30T01:21:09;102578.0;;;15.69;78.41
36834;BME280;48003;52.084;5.224;2023-09-30T01:24:20;102583.0;;;15.62;78.61
36834;BME280;48003;52.084;5.224;2023-09-30T01:25:56;102584.99999999999;;;15.57;79.16
36834;BME280;48003;52.084;5.224;2023-09-30T01:27:33;102579.0;;;15.68;79.16
36834;BME280;48003;52.084;5.224;2023-09-30T01:29:08;102581.0;;;15.8;78.55
36834;BME280;48003;52.084;5.224;2023-09-30T01:32:21;102580.0;;;15.84;78.44
36834;BME280;48003;52.084;5.224;2023-09-30T01:33:56;102578.0;;;15.82;78.3
36834;BME280;48003;52.084;5.224;2023-09-30T01:35:32;102575.0;;;15.79;78.52
36834;BME280;48003;52.084;5.224;2023-09-30T01:38:44;102574.0;;;15.85;78.44
36834;BME280;48003;52.084;5.224;2023-09-30T01:40:19;102576.0;;;15.82;78.49
36834;BME280;48003;52.084;5.224;2023-09-30T01:41:55;102572.0;;;15.76;78.8
36834;BME280;48003;52.084;5.224;2023-09-30T01:45:08;102573.0;;;15.8;78.8
36834;BME280;48003;52.084;5.224;2023-09-30T01:46:44;102573.0;;;15.82;78.88
36834;BME280;48003;52.084;5.224;2023-09-30T01:48:20;102573.0;;;15.78;78.94
36834;BME280;48003;52.084;5.224;2023-09-30T01:51:31;102570.0;;;15.72;79.09
36834;BME280;48003;52.084;5.224;2023-09-30T01:53:08;102564.00000000001;;;15.67;79.22
36834;BME280;48003;52.084;5.224;2023-09-30T01:54:44;102561.99999999999;;;15.63;79.47
36834;BME280;48003;52.084;5.224;2023-09-30T01:56:20;102555.0;;;15.63;79.61
36834;BME280;48003;52.084;5.224;2023-09-30T01:59:31;102549.0;;;15.65;79.52
36834;BME280;48003;52.084;5.224;2023-09-30T02:01:08;102545.0;;;15.66;79.44
36834;BME280;48003;52.084;5.224;2023-09-30T02:02:45;102548.0;;;15.68;79.13
36834;BME280;48003;52.084;5.224;2023-09-30T02:05:56;102556.0;;;15.63;78.99
36834;BME280;48003;52.084;5.224;2023-09-30T02:07:32;102563.00000000001;;;15.64;79.24
36834;BME280;48003;52.084;5.224;2023-09-30T02:09:08;102564.00000000001;;;15.63;79.47
36834;BME280;48003;52.084;5.224;2023-09-30T02:12:19;102569.0;;;15.62;79.63
36834;BME280;48003;52.084;5.224;2023-09-30T02:13:55;102568.0;;;15.62;79.7
36834;BME280;48003;52.084;5.224;2023-09-30T02:15:30;102571.0;;;15.72;79.49
36834;BME280;48003;52.084;5.224;2023-09-30T02:18:43;102568.0;;;15.67;79.7
36834;BME280;48003;52.084;5.224;2023-09-30T02:20:19;102569.0;;;15.72;79.66
36834;BME280;48003;52.084;5.224;2023-09-30T02:21:55;102573.0;;;15.73;79.55
36834;BME280;48003;52.084;5.224;2023-09-30T02:23:31;102573.0;;;15.79;79.3
36834;BME280;48003;52.084;5.224;2023-09-30T02:26:44;102574.0;;;15.77;79.53
36834;BME280;48003;52.084;5.224;2023-09-30T02:28:20;102571.0;;;15.77;79.75
36834;BME280;48003;52.084;5.224;2023-09-30T02:29:56;102575.0;;;15.83;79.69
36834;BME280;48003;52.084;5.224;2023-09-30T02:33:08;102570.0;;;15.81;79.86
36834;BME280;48003;52.084;5.224;2023-09-30T02:34:44;102559.99999999999;;;15.87;79.8
36834;BME280;48003;52.084;5.224;2023-09-30T02:36:20;102557.0;;;15.95;79.5
36834;BME280;48003;52.084;5.224;2023-09-30T02:39:31;102549.0;;;15.95;79.19
36834;BME280;48003;52.084;5.224;2023-09-30T02:41:07;102542.0;;;15.91;79.45
36834;BME280;48003;52.084;5.224;2023-09-30T02:42:43;102547.0;;;15.9;79.63
36834;BME280;48003;52.084;5.224;2023-09-30T02:45:56;102550.0;;;15.85;79.83
36834;BME280;48003;52.084;5.224;2023-09-30T02:47:32;102550.0;;;15.83;79.86
36834;BME280;48003;52.084;5.224;2023-09-30T02:49:08;102555.0;;;15.81;79.92
36834;BME280;48003;52.084;5.224;2023-09-30T02:50:44;102554.0;;;15.79;79.84
36834;BME280;48003;52.084;5.224;2023-09-30T02:53:57;102554.0;;;15.73;80.03
36834;BME280;48003;52.084;5.224;2023-09-30T02:55:33;102555.0;;;15.72;80.13
36834;BME280;48003;52.084;5.224;2023-09-30T02:57:08;102551.0;;;15.74;80.11
36834;BME280;48003;52.084;5.224;2023-09-30T03:00:21;102556.0;;;15.84;79.8
36834;BME280;48003;52.084;5.224;2023-09-30T03:01:57;102551.0;;;15.83;79.7
36834;BME280;48003;52.084;5.224;2023-09-30T03:03:33;102551.0;;;15.78;79.88
36834;BME280;48003;52.084;5.224;2023-09-30T03:06:45;102546.0;;;15.75;79.95
36834;BME280;48003;52.084;5.224;2023-09-30T03:08:22;102552.0;;;15.69;80.16
36834;BME280;48003;52.084;5.224;2023-09-30T03:09:58;102554.0;;;15.65;80.22
36834;BME280;48003;52.084;5.224;2023-09-30T03:11:34;102548.0;;;15.7;80.3
36834;BME280;48003;52.084;5.224;2023-09-30T03:14:46;102544.0;;;15.73;80.03
36834;BME280;48003;52.084;5.224;2023-09-30T03:16:22;102542.0;;;15.69;80.23
36834;BME280;48003;52.084;5.224;2023-09-30T03:17:57;102552.0;;;15.68;80.25
36834;BME280;48003;52.084;5.224;2023-09-30T03:21:13;102549.0;;;15.6;80.2
36834;BME280;48003;52.084;5.224;2023-09-30T03:22:51;102552.0;;;15.57;80.36
36834;BME280;48003;52.084;5.224;2023-09-30T03:24:27;102546.0;;;15.6;80.41
36834;BME280;48003;52.084;5.224;2023-09-30T03:27:39;102542.0;;;15.58;80.36
36834;BME280;48003;52.084;5.224;2023-09-30T03:30:51;102541.00000000001;;;15.59;80.3
36834;BME280;48003;52.084;5.224;2023-09-30T03:34:04;102543.0;;;15.58;80.27
36834;BME280;48003;52.084;5.224;2023-09-30T03:35:40;102540.00000000001;;;15.56;80.2
36834;BME280;48003;52.084;5.224;2023-09-30T03:37:16;102544.0;;;15.52;80.14
36834;BME280;48003;52.084;5.224;2023-09-30T03:38:52;102553.0;;;15.53;80.41
36834;BME280;48003;52.084;5.224;2023-09-30T03:42:04;102551.0;;;15.62;80.48
36834;BME280;48003;52.084;5.224;2023-09-30T03:43:40;102547.0;;;15.6;80.61
36834;BME280;48003;52.084;5.224;2023-09-30T03:45:16;102544.0;;;15.58;80.8
36834;BME280;48003;52.084;5.224;2023-09-30T03:48:28;102550.0;;;15.63;80.8
36834;BME280;48003;52.084;5.224;2023-09-30T03:50:05;102554.0;;;15.71;80.38
36834;BME280;48003;52.084;5.224;2023-09-30T03:51:42;102553.0;;;15.73;80.27
36834;BME280;48003;52.084;5.224;2023-09-30T03:54:53;102551.0;;;15.72;80.28
36834;BME280;48003;52.084;5.224;2023-09-30T03:56:29;102553.0;;;15.66;80.41
36834;BME280;48003;52.084;5.224;2023-09-30T03:59:42;102542.0;;;15.6;80.48
36834;BME280;48003;52.084;5.224;2023-09-30T04:02:54;102545.0;;;15.54;80.69
36834;BME280;48003;52.084;5.224;2023-09-30T04:04:30;102548.0;;;15.53;80.91
36834;BME280;48003;52.084;5.224;2023-09-30T04:06:06;102550.0;;;15.56;81.12
36834;BME280;48003;52.084;5.224;2023-09-30T04:09:19;102552.0;;;15.59;81.05
36834;BME280;48003;52.084;5.224;2023-09-30T04:10:54;102547.0;;;15.59;80.87
36834;BME280;48003;52.084;5.224;2023-09-30T04:12:30;102552.0;;;15.58;80.8
36834;BME280;48003;52.084;5.224;2023-09-30T04:15:43;102548.0;;;15.54;80.98
36834;BME280;48003;52.084;5.224;2023-09-30T04:17:19;102546.0;;;15.57;81.16
36834;BME280;48003;52.084;5.224;2023-09-30T04:18:55;102550.0;;;15.56;81.22
36834;BME280;48003;52.084;5.224;2023-09-30T04:22:07;102558.99999999999;;;15.54;81.33
36834;BME280;48003;52.084;5.224;2023-09-30T04:23:43;102559.99999999999;;;15.56;81.33
36834;BME280;48003;52.084;5.224;2023-09-30T04:25:19;102555.0;;;15.57;81.24
36834;BME280;48003;52.084;5.224;2023-09-30T04:26:54;102556.0;;;15.52;81.31
36834;BME280;48003;52.084;5.224;2023-09-30T04:30:07;102556.0;;;15.54;81.13
36834;BME280;48003;52.084;5.224;2023-09-30T04:31:42;102558.99999999999;;;15.54;80.98
36834;BME280;48003;52.084;5.224;2023-09-30T04:33:18;102563.00000000001;;;15.55;80.84
36834;BME280;48003;52.084;5.224;2023-09-30T04:36:30;102564.00000000001;;;15.54;80.7
36834;BME280;48003;52.084;5.224;2023-09-30T04:38:05;102558.0;;;15.5;80.8
36834;BME280;48003;52.084;5.224;2023-09-30T04:39:41;102564.00000000001;;;15.5;80.92
36834;BME280;48003;52.084;5.224;2023-09-30T04:42:53;102567.0;;;15.44;81.28
36834;BME280;48003;52.084;5.224;2023-09-30T04:44:29;102573.0;;;15.52;81.34
36834;BME280;48003;52.084;5.224;2023-09-30T04:46:06;102573.0;;;15.5;81.45
36834;BME280;48003;52.084;5.224;2023-09-30T04:49:18;102573.0;;;15.49;81.52
36834;BME280;48003;52.084;5.224;2023-09-30T04:50:54;102573.0;;;15.48;81.28
36834;BME280;48003;52.084;5.224;2023-09-30T04:52:30;102573.0;;;15.49;81.16
36834;BME280;48003;52.084;5.224;2023-09-30T04:54:07;102575.0;;;15.48;81.24
36834;BME280;48003;52.084;5.224;2023-09-30T04:57:19;102586.99999999999;;;15.5;81.39
36834;BME280;48003;52.084;5.224;2023-09-30T04:58:55;102590.00000000001;;;15.51;81.5
36834;BME280;48003;52.084;5.224;2023-09-30T05:00:31;102589.00000000001;;;15.45;81.69
36834;BME280;48003;52.084;5.224;2023-09-30T05:03:42;102590.00000000001;;;15.46;81.77
36834;BME280;48003;52.084;5.224;2023-09-30T05:05:18;102593.0;;;15.44;81.58
36834;BME280;48003;52.084;5.224;2023-09-30T05:06:54;102592.0;;;15.47;81.36
36834;BME280;48003;52.084;5.224;2023-09-30T05:10:08;102592.0;;;15.39;81.42
36834;BME280;48003;52.084;5.224;2023-09-30T05:11:44;102590.00000000001;;;15.42;81.72
36834;BME280;48003;52.084;5.224;2023-09-30T05:13:20;102588.00000000001;;;15.4;81.94
36834;BME280;48003;52.084;5.224;2023-09-30T05:16:32;102583.99999999999;;;15.49;81.72
36834;BME280;48003;52.084;5.224;2023-09-30T05:18:08;102579.0;;;15.6;81.24
36834;BME280;48003;52.084;5.224;2023-09-30T05:19:45;102581.0;;;15.7;80.58
36834;BME280;48003;52.084;5.224;2023-09-30T05:21:21;102583.0;;;15.72;80.13
36834;BME280;48003;52.084;5.224;2023-09-30T05:24:33;102584.99999999999;;;15.63;80.33
36834;BME280;48003;52.084;5.224;2023-09-30T05:26:09;102578.0;;;15.58;80.72
36834;BME280;48003;52.084;5.224;2023-09-30T05:27:46;102584.99999999999;;;15.49;81.11
36834;BME280;48003;52.084;5.224;2023-09-30T05:30:59;102586.99999999999;;;15.51;81.16
36834;BME280;48003;52.084;5.224;2023-09-30T05:32:35;102593.0;;;15.56;80.75
36834;BME280;48003;52.084;5.224;2023-09-30T05:34:11;102592.0;;;15.51;80.91
36834;BME280;48003;52.084;5.224;2023-09-30T05:37:24;102592.0;;;15.45;81.19
36834;BME280;48003;52.084;5.224;2023-09-30T05:39:00;102597.0;;;15.56;80.97
36834;BME280;48003;52.084;5.224;2023-09-30T05:40:37;102594.0;;;15.63;80.62
36834;BME280;48003;52.084;5.224;2023-09-30T05:42:13;102596.0;;;15.63;80.25
36834;BME280;48003;52.084;5.224;2023-09-30T05:45:26;102599.0;;;15.63;80.27
36834;BME280;48003;52.084;5.224;2023-09-30T05:47:04;102603.0;;;15.51;80.69
36834;BME280;48003;52.084;5.224;2023-09-30T05:48:41;102596.0;;;15.5;80.66
36834;BME280;48003;52.084;5.224;2023-09-30T05:51:54;102600.0;;;15.46;80.69
36834;BME280;48003;52.084;5.224;2023-09-30T05:53:31;102594.0;;;15.44;80.62
36834;BME280;48003;52.084;5.224;2023-09-30T05:55:07;102592.0;;;15.41;80.7
36834;BME280;48003;52.084;5.224;2023-09-30T05:58:20;102592.0;;;15.38;80.77
36834;BME280;48003;52.084;5.224;2023-09-30T05:59:56;102589.00000000001;;;15.34;80.95
36834;BME280;48003;52.084;5.224;2023-09-30T06:01:32;102591.00000000001;;;15.33;81.11
36834;BME280;48003;52.084;5.224;2023-09-30T06:03:08;102593.0;;;15.27;81.13
36834;BME280;48003;52.084;5.224;2023-09-30T06:06:21;102598.0;;;15.19;81.44
36834;BME280;48003;52.084;5.224;2023-09-30T06:07:59;102603.0;;;15.24;81.75
36834;BME280;48003;52.084;5.224;2023-09-30T06:09:35;102604.0;;;15.28;81.72
36834;BME280;48003;52.084;5.224;2023-09-30T06:12:53;102602.0;;;15.34;81.62
36834;BME280;48003;52.084;5.224;2023-09-30T06:14:30;102602.0;;;15.35;81.69
36834;BME280;48003;52.084;5.224;2023-09-30T06:16:06;102600.0;;;15.37;81.91
36834;BME280;48003;52.084;5.224;2023-09-30T06:19:18;102597.0;;;15.52;81.16
36834;BME280;48003;52.084;5.224;2023-09-30T06:20:54;102593.0;;;15.57;81.03
36834;BME280;48003;52.084;5.224;2023-09-30T06:22:30;102586.99999999999;;;15.59;80.95
36834;BME280;48003;52.084;5.224;2023-09-30T06:24:07;102598.0;;;15.59;80.81
36834;BME280;48003;52.084;5.224;2023-09-30T06:27:18;102599.0;;;15.51;80.91
36834;BME280;48003;52.084;5.224;2023-09-30T06:28:55;102600.0;;;15.55;81.41
36834;BME280;48003;52.084;5.224;2023-09-30T06:30:31;102602.0;;;15.54;81.36
36834;BME280;48003;52.084;5.224;2023-09-30T06:33:43;102613.00000000001;;;15.59;81.42
36834;BME280;48003;52.084;5.224;2023-09-30T06:35:19;102615.00000000001;;;15.58;81.64
36834;BME280;48003;52.084;5.224;2023-09-30T06:36:55;102621.0;;;15.59;81.66
36834;BME280;48003;52.084;5.224;2023-09-30T06:40:09;102629.0;;;15.69;81.39
36834;BME280;48003;52.084;5.224;2023-09-30T06:41:45;102630.0;;;15.68;81.45
36834;BME280;48003;52.084;5.224;2023-09-30T06:43:21;102629.0;;;15.75;81.37
36834;BME280;48003;52.084;5.224;2023-09-30T06:44:58;102631.0;;;15.59;82.48
36834;BME280;48003;52.084;5.224;2023-09-30T06:48:11;102632.0;;;15.33;83.74
36834;BME280;48003;52.084;5.224;2023-09-30T06:49:47;102633.0;;;15.64;82.76
36834;BME280;48003;52.084;5.224;2023-09-30T06:51:23;102634.99999999999;;;15.73;82.42
36834;BME280;48003;52.084;5.224;2023-09-30T06:54:35;102636.99999999999;;;15.62;82.4
36834;BME280;48003;52.084;5.224;2023-09-30T06:56:11;102638.00000000001;;;15.72;82.64
36834;BME280;48003;52.084;5.224;2023-09-30T06:57:47;102644.0;;;15.77;82.32
36834;BME280;48003;52.084;5.224;2023-09-30T07:01:00;102654.0;;;15.89;82.04
36834;BME280;48003;52.084;5.224;2023-09-30T07:02:35;102653.0;;;15.9;81.91
36834;BME280;48003;52.084;5.224;2023-09-30T07:04:12;102657.0;;;15.71;82.88
36834;BME280;48003;52.084;5.224;2023-09-30T07:07:23;102658.99999999999;;;15.87;82.72
36834;BME280;48003;52.084;5.224;2023-09-30T07:08:59;102658.0;;;15.93;82.25
36834;BME280;48003;52.084;5.224;2023-09-30T07:10:35;102658.99999999999;;;15.94;82.39
36834;BME280;48003;52.084;5.224;2023-09-30T07:12:11;102666.00000000001;;;15.9;83.05
36834;BME280;48003;52.084;5.224;2023-09-30T07:15:23;102674.0;;;15.71;83.56
36834;BME280;48003;52.084;5.224;2023-09-30T07:17:00;102672.0;;;15.85;83.21
36834;BME280;48003;52.084;5.224;2023-09-30T07:18:36;102671.0;;;15.97;83.1
36834;BME280;48003;52.084;5.224;2023-09-30T07:21:48;102669.0;;;16.09;82.74
36834;BME280;48003;52.084;5.224;2023-09-30T07:23:24;102676.0;;;16.02;82.94
36834;BME280;48003;52.084;5.224;2023-09-30T07:25:00;102668.0;;;15.87;83.67
36834;BME280;48003;52.084;5.224;2023-09-30T07:28:12;102667.0;;;15.91;83.79
36834;BME280;48003;52.084;5.224;2023-09-30T07:29:49;102667.0;;;16.18;82.96
36834;BME280;48003;52.084;5.224;2023-09-30T07:31:24;102671.0;;;16.27;82.59
36834;BME280;48003;52.084;5.224;2023-09-30T07:34:37;102676.0;;;16.27;82.9
36834;BME280;48003;52.084;5.224;2023-09-30T07:36:13;102675.0;;;16.27;82.91
36834;BME280;48003;52.084;5.224;2023-09-30T07:37:50;102680.0;;;16.25;83.1
36834;BME280;48003;52.084;5.224;2023-09-30T07:42:38;102679.0;;;16.46;82.74
36834;BME280;48003;52.084;5.224;2023-09-30T07:44:14;102680.0;;;16.3;83.27
36834;BME280;48003;52.084;5.224;2023-09-30T07:45:50;102689.00000000001;;;16.5;82.67
36834;BME280;48003;52.084;5.224;2023-09-30T07:49:03;102695.0;;;16.4;83.09
36834;BME280;48003;52.084;5.224;2023-09-30T07:50:39;102698.0;;;16.55;82.84
36834;BME280;48003;52.084;5.224;2023-09-30T07:52:15;102692.0;;;16.62;82.82
36834;BME280;48003;52.084;5.224;2023-09-30T07:55:27;102693.0;;;16.56;83.43
36834;BME280;48003;52.084;5.224;2023-09-30T07:57:03;102694.0;;;16.36;84.72
36834;BME280;48003;52.084;5.224;2023-09-30T07:58:39;102692.0;;;16.43;84.25
36834;BME280;48003;52.084;5.224;2023-09-30T08:00:16;102689.00000000001;;;16.73;83.35
36834;BME280;48003;52.084;5.224;2023-09-30T08:03:28;102680.0;;;16.71;83.84
36834;BME280;48003;52.084;5.224;2023-09-30T08:05:06;102675.0;;;16.75;84.24
36834;BME280;48003;52.084;5.224;2023-09-30T08:06:43;102680.0;;;16.91;83.51
36834;BME280;48003;52.084;5.224;2023-09-30T08:09:55;102681.0;;;16.89;83.91
36834;BME280;48003;52.084;5.224;2023-09-30T08:11:31;102675.0;;;17.09;83.07
36834;BME280;48003;52.084;5.224;2023-09-30T08:13:07;102677.0;;;16.97;83.48
36834;BME280;48003;52.084;5.224;2023-09-30T08:16:19;102669.0;;;17.0;84.08
36834;BME280;48003;52.084;5.224;2023-09-30T08:17:55;102668.0;;;17.11;83.54
36834;BME280;48003;52.084;5.224;2023-09-30T08:19:31;102667.0;;;17.18;83.5
36834;BME280;48003;52.084;5.224;2023-09-30T08:22:45;102661.99999999999;;;17.18;83.91
36834;BME280;48003;52.084;5.224;2023-09-30T08:24:21;102658.99999999999;;;17.31;83.49
36834;BME280;48003;52.084;5.224;2023-09-30T08:25:58;102655.0;;;17.37;83.22
36834;BME280;48003;52.084;5.224;2023-09-30T08:27:36;102658.99999999999;;;17.45;83.15
36834;BME280;48003;52.084;5.224;2023-09-30T08:30:48;102664.00000000001;;;17.37;83.95
36834;BME280;48003;52.084;5.224;2023-09-30T08:32:24;102669.0;;;17.5;83.68
36834;BME280;48003;52.084;5.224;2023-09-30T08:34:00;102671.0;;;17.5;83.78
36834;BME280;48003;52.084;5.224;2023-09-30T08:37:14;102666.00000000001;;;17.55;83.45
36834;BME280;48003;52.084;5.224;2023-09-30T08:38:50;102671.0;;;17.59;83.0
36834;BME280;48003;52.084;5.224;2023-09-30T08:40:26;102672.0;;;17.61;83.45
36834;BME280;48003;52.084;5.224;2023-09-30T08:43:39;102675.0;;;17.56;83.7
36834;BME280;48003;52.084;5.224;2023-09-30T08:45:16;102673.0;;;17.57;83.81
36834;BME280;48003;52.084;5.224;2023-09-30T08:46:54;102677.0;;;17.63;83.62
36834;BME280;48003;52.084;5.224;2023-09-30T08:48:32;102676.0;;;17.82;82.54
36834;BME280;48003;52.084;5.224;2023-09-30T08:51:48;102678.0;;;17.72;82.43
36834;BME280;48003;52.084;5.224;2023-09-30T08:53:25;102677.0;;;17.84;82.7
36834;BME280;48003;52.084;5.224;2023-09-30T08:55:02;102671.0;;;17.96;82.46
36834;BME280;48003;52.084;5.224;2023-09-30T08:58:19;102670.0;;;18.06;82.01
36834;BME280;48003;52.084;5.224;2023-09-30T08:59:59;102671.0;;;18.12;81.49
36834;BME280;48003;52.084;5.224;2023-09-30T09:01:37;102678.0;;;18.02;81.39
36834;BME280;48003;52.084;5.224;2023-09-30T09:03:15;102684.99999999999;;;18.2;80.74
36834;BME280;48003;52.084;5.224;2023-09-30T09:06:27;102686.99999999999;;;18.31;80.42
36834;BME280;48003;52.084;5.224;2023-09-30T09:08:04;102688.00000000001;;;18.32;80.44
36834;BME280;48003;52.084;5.224;2023-09-30T09:09:40;102684.99999999999;;;18.41;80.5
36834;BME280;48003;52.084;5.224;2023-09-30T09:12:55;102697.0;;;18.25;80.7
36834;BME280;48003;52.084;5.224;2023-09-30T09:14:37;102699.0;;;18.45;80.64
36834;BME280;48003;52.084;5.224;2023-09-30T09:16:13;102708.0;;;18.43;81.02
36834;BME280;48003;52.084;5.224;2023-09-30T09:17:49;102716.00000000001;;;18.63;80.03
36834;BME280;48003;52.084;5.224;2023-09-30T09:21:10;102717.0;;;18.36;80.22
36834;BME280;48003;52.084;5.224;2023-09-30T09:22:48;102715.00000000001;;;18.55;80.36
36834;BME280;48003;52.084;5.224;2023-09-30T09:24:29;102717.0;;;18.73;79.61
36834;BME280;48003;52.084;5.224;2023-09-30T09:26:05;102718.0;;;18.84;79.19
36834;BME280;48003;52.084;5.224;2023-09-30T09:29:24;102722.0;;;18.64;80.25
36834;BME280;48003;52.084;5.224;2023-09-30T09:31:01;102739.00000000001;;;18.84;79.73
36834;BME280;48003;52.084;5.224;2023-09-30T09:32:37;102733.99999999999;;;18.62;80.05
36834;BME280;48003;52.084;5.224;2023-09-30T09:35:50;102738.00000000001;;;18.73;79.67
36834;BME280;48003;52.084;5.224;2023-09-30T09:37:26;102740.00000000001;;;18.98;78.72
36834;BME280;48003;52.084;5.224;2023-09-30T09:39:03;102740.00000000001;;;18.97;78.77
36834;BME280;48003;52.084;5.224;2023-09-30T09:42:24;102731.0;;;18.89;78.63
36834;BME280;48003;52.084;5.224;2023-09-30T09:43:59;102732.0;;;19.16;77.52
36834;BME280;48003;52.084;5.224;2023-09-30T09:45:37;102743.0;;;18.89;78.13
36834;BME280;48003;52.084;5.224;2023-09-30T09:47:13;102736.99999999999;;;18.8;77.83
36834;BME280;48003;52.084;5.224;2023-09-30T09:50:26;102740.00000000001;;;19.13;75.97
36834;BME280;48003;52.084;5.224;2023-09-30T09:52:02;102738.00000000001;;;19.41;74.27
36834;BME280;48003;52.084;5.224;2023-09-30T09:53:41;102744.0;;;19.45;73.12
36834;BME280;48003;52.084;5.224;2023-09-30T09:56:56;102743.0;;;19.3;74.28
36834;BME280;48003;52.084;5.224;2023-09-30T09:58:36;102740.00000000001;;;19.32;74.47
36834;BME280;48003;52.084;5.224;2023-09-30T10:00:14;102741.00000000001;;;19.18;74.19
36834;BME280;48003;52.084;5.224;2023-09-30T10:01:51;102743.0;;;19.59;73.34
36834;BME280;48003;52.084;5.224;2023-09-30T10:05:04;102749.0;;;19.77;72.02
36834;BME280;48003;52.084;5.224;2023-09-30T10:06:41;102747.0;;;19.7;72.86
36834;BME280;48003;52.084;5.224;2023-09-30T10:08:21;102744.0;;;19.75;72.61
36834;BME280;48003;52.084;5.224;2023-09-30T10:10:07;102733.0;;;20.02;71.73
36834;BME280;48003;52.084;5.224;2023-09-30T10:14:05;102734.99999999999;;;20.12;70.72
36834;BME280;48003;52.084;5.224;2023-09-30T10:15:42;102731.0;;;19.72;70.08
36834;BME280;48003;52.084;5.224;2023-09-30T10:17:18;102729.0;;;19.59;70.14
36834;BME280;48003;52.084;5.224;2023-09-30T10:19:07;102721.0;;;19.81;69.83
36834;BME280;48003;52.084;5.224;2023-09-30T10:20:44;102721.0;;;19.36;68.74
36834;BME280;48003;52.084;5.224;2023-09-30T10:24:28;102719.0;;;19.72;68.09
36834;BME280;48003;52.084;5.224;2023-09-30T10:26:14;102709.99999999999;;;19.93;68.41
36834;BME280;48003;52.084;5.224;2023-09-30T10:27:55;102700.0;;;19.86;67.75
36834;BME280;48003;52.084;5.224;2023-09-30T10:29:39;102706.0;;;19.97;68.09
36834;BME280;48003;52.084;5.224;2023-09-30T10:31:17;102707.0;;;20.09;67.33
36834;BME280;48003;52.084;5.224;2023-09-30T10:34:48;102704.0;;;20.14;67.34
36834;BME280;48003;52.084;5.224;2023-09-30T10:36:27;102702.0;;;20.06;67.12
36834;BME280;48003;52.084;5.224;2023-09-30T10:38:36;102701.0;;;20.06;66.52
36834;BME280;48003;52.084;5.224;2023-09-30T10:40:26;102699.0;;;20.45;66.03
36834;BME280;48003;52.084;5.224;2023-09-30T10:42:03;102703.0;;;20.8;65.47
36834;BME280;48003;52.084;5.224;2023-09-30T10:43:40;102709.99999999999;;;20.43;65.69
36834;BME280;48003;52.084;5.224;2023-09-30T10:47:39;102713.00000000001;;;20.49;66.25
36834;BME280;48003;52.084;5.224;2023-09-30T10:49:29;102708.0;;;20.32;66.3
36834;BME280;48003;52.084;5.224;2023-09-30T10:51:14;102700.0;;;20.32;65.86
36834;BME280;48003;52.084;5.224;2023-09-30T10:53:03;102704.0;;;20.56;65.81
36834;BME280;48003;52.084;5.224;2023-09-30T10:54:39;102699.0;;;20.87;65.31